Time;durP1;ratioP1;P1;durP2;ratioP2;P2;SDS_P1;SDS_P2;PMS_P1;PMS_P2;Temp;Humidity;BMP_temperature;BMP_pressure;BME280_temperature;BME280_humidity;BME280_pressure;Samples;Min_cycle;Max_cycle;Signal;HPM_P1;HPM_P2
2022/03/22 00:00:10;;;;;;;33.17;17.95;;;;;;;8.60;66.17;102960.66;5113636;28;20833;-65
2022/03/22 00:02:42;;;;;;;28.90;17.33;;;;;;;8.54;66.24;102956.19;5108654;28;20048;-66
2022/03/22 00:05:11;;;;;;;31.50;18.02;;;;;;;8.50;66.16;102957.00;5112888;28;20086;-66
2022/03/22 00:07:38;;;;;;;29.90;18.02;;;;;;;8.46;66.24;102969.22;5113023;27;20048;-66
2022/03/22 00:10:06;;;;;;;28.67;17.17;;;;;;;8.43;66.38;102970.94;5114991;28;20068;-66
2022/03/22 00:12:35;;;;;;;27.40;17.33;;;;;;;8.39;66.40;102970.00;5114306;27;20043;-67
2022/03/22 00:15:04;;;;;;;28.88;17.88;;;;;;;8.38;66.37;102973.50;5114790;27;20054;-66
2022/03/22 00:17:52;;;;;;;29.75;16.75;;;;;;;8.34;66.34;102964.69;5115777;28;20040;-67
2022/03/22 00:20:19;;;;;;;27.05;18.13;;;;;;;8.31;66.48;102977.78;5117089;27;20416;-67
2022/03/22 00:22:48;;;;;;;28.90;17.45;;;;;;;8.29;66.38;102968.13;5112890;27;20041;-66
2022/03/22 00:25:16;;;;;;;27.85;17.92;;;;;;;8.26;66.67;102974.22;5113455;27;20048;-66
2022/03/22 00:27:55;;;;;;;28.05;17.13;;;;;;;8.24;66.50;102973.31;5113472;28;20051;-66
2022/03/22 00:30:33;;;;;;;33.47;17.98;;;;;;;8.19;66.65;102975.88;5112755;28;20047;-66
2022/03/22 00:33:07;;;;;;;30.08;17.90;;;;;;;8.17;67.20;102974.97;5112912;27;20494;-66
2022/03/22 00:35:37;;;;;;;30.25;18.25;;;;;;;8.17;66.88;102980.22;5113723;27;20097;-66
2022/03/22 00:38:08;;;;;;;34.13;17.73;;;;;;;8.15;66.88;102981.94;5113641;27;20090;-68
2022/03/22 00:40:35;;;;;;;31.70;17.77;;;;;;;8.13;66.90;102981.06;5110529;27;20048;-66
2022/03/22 00:43:02;;;;;;;32.03;17.83;;;;;;;8.07;66.69;102991.47;5112172;27;20494;-67
2022/03/22 00:45:34;;;;;;;26.95;17.92;;;;;;;7.97;66.63;102987.84;5111065;27;20044;-67
2022/03/22 00:48:06;;;;;;;29.13;17.08;;;;;;;7.87;66.79;102988.56;5112179;27;20067;-66
2022/03/22 00:50:37;;;;;;;28.75;17.27;;;;;;;7.80;66.91;102989.28;5114049;27;20428;-64
2022/03/22 00:53:07;;;;;;;31.15;17.30;;;;;;;7.70;66.77;102986.53;5113020;27;20504;-64
2022/03/22 00:55:36;;;;;;;32.92;16.95;;;;;;;7.64;66.97;102988.16;5108950;27;20040;-65
2022/03/22 00:58:04;;;;;;;27.08;17.13;;;;;;;7.57;67.01;102988.06;5109789;27;20218;-65
2022/03/22 01:00:31;;;;;;;27.83;17.45;;;;;;;7.48;67.31;102985.31;5111809;27;20052;-64
2022/03/22 01:03:02;;;;;;;29.42;18.08;;;;;;;7.44;67.29;102991.34;5111235;27;20052;-64
2022/03/22 01:05:31;;;;;;;26.95;16.90;;;;;;;7.38;67.32;102988.63;5105462;28;20040;-64
2022/03/22 01:08:03;;;;;;;28.17;17.17;;;;;;;7.34;67.48;102990.31;5112673;28;20043;-65
2022/03/22 01:10:34;;;;;;;28.25;16.85;;;;;;;7.28;67.36;102987.56;5111778;27;20044;-64
2022/03/22 01:13:03;;;;;;;29.42;16.80;;;;;;;7.23;67.42;102986.63;5110459;27;20454;-64
2022/03/22 01:15:33;;;;;;;32.88;17.63;;;;;;;7.18;67.39;102983.00;5110977;28;20038;-64
2022/03/22 01:18:05;;;;;;;26.88;17.40;;;;;;;7.12;67.34;102984.69;5112616;27;20044;-64
2022/03/22 01:20:43;;;;;;;29.02;17.35;;;;;;;7.10;67.44;102985.50;5113305;27;20086;-65
2022/03/22 01:23:11;;;;;;;32.28;17.38;;;;;;;7.05;67.41;102985.44;5108972;28;20765;-67
2022/03/22 01:25:41;;;;;;;29.88;17.33;;;;;;;7.03;67.64;102995.00;5111849;28;20039;-67
2022/03/22 01:28:12;;;;;;;28.92;17.67;;;;;;;6.97;67.63;102989.63;5112374;27;20078;-68
2022/03/22 01:30:45;;;;;;;28.83;17.88;;;;;;;6.91;67.69;102987.78;5112504;28;20072;-68
2022/03/22 01:33:12;;;;;;;28.40;17.35;;;;;;;6.83;67.70;102982.41;5108904;28;20052;-64
2022/03/22 01:35:41;;;;;;;28.83;18.02;;;;;;;6.78;67.87;102986.66;5110190;28;20054;-64
2022/03/22 01:38:08;;;;;;;31.75;18.73;;;;;;;6.74;68.01;102995.31;5109914;28;20044;-64
2022/03/22 01:40:36;;;;;;;27.73;17.67;;;;;;;6.67;67.93;102981.19;5109657;28;20048;-66
2022/03/22 01:43:06;;;;;;;32.97;17.35;;;;;;;6.62;68.06;102987.19;5108545;27;20047;-67
2022/03/22 01:45:33;;;;;;;29.92;17.60;;;;;;;6.56;68.24;102987.09;5110144;28;20044;-65
2022/03/22 01:48:04;;;;;;;26.85;17.77;;;;;;;6.51;68.33;102987.00;5112525;27;20036;-66
2022/03/22 01:50:33;;;;;;;27.92;17.67;;;;;;;6.46;68.27;102984.25;5111369;27;20036;-66
2022/03/22 01:53:08;;;;;;;29.52;17.98;;;;;;;6.42;68.43;102984.16;5110928;28;20558;-67
2022/03/22 01:55:36;;;;;;;30.25;17.77;;;;;;;6.37;68.36;102978.81;5112361;27;20047;-66
2022/03/22 01:58:03;;;;;;;30.35;18.02;;;;;;;6.35;68.70;102978.78;5112978;28;20047;-66
2022/03/22 02:00:30;;;;;;;27.85;17.77;;;;;;;6.36;68.71;102974.41;5108259;27;20109;-66
2022/03/22 02:05:54;;;;;;;26.58;17.05;;;;;;;6.34;68.58;102977.00;5111547;28;20517;-66
2022/03/22 02:08:27;;;;;;;25.83;16.60;;;;;;;6.31;68.75;102974.31;5109089;28;20528;-66
2022/03/22 02:10:56;;;;;;;26.88;16.75;;;;;;;6.31;68.75;102971.69;5111847;28;20065;-66
2022/03/22 02:13:23;;;;;;;27.33;17.15;;;;;;;6.34;68.82;102976.16;5112775;27;20044;-67
2022/03/22 02:15:57;;;;;;;30.70;16.75;;;;;;;6.36;68.71;102972.69;5109468;27;20489;-67
2022/03/22 02:18:25;;;;;;;32.60;16.50;;;;;;;6.38;68.70;102967.47;5112851;27;20076;-67
2022/03/22 02:20:53;;;;;;;29.95;17.45;;;;;;;6.37;68.67;102976.19;5109806;27;20040;-66
2022/03/22 02:23:51;;;;;;;28.58;16.88;;;;;;;6.36;68.53;102970.06;5107516;28;20044;-67
2022/03/22 02:26:21;;;;;;;27.10;17.13;;;;;;;6.30;68.65;102962.09;5107827;28;20054;-66
2022/03/22 02:28:53;;;;;;;26.48;16.45;;;;;;;6.29;68.73;102964.66;5111331;28;20046;-66
2022/03/22 02:31:28;;;;;;;30.05;17.00;;;;;;;6.22;68.65;102961.94;5103778;27;20425;-66
2022/03/22 02:33:56;;;;;;;27.92;17.33;;;;;;;6.18;68.51;102959.22;5112023;28;20489;-66
2022/03/22 02:36:23;;;;;;;26.67;17.13;;;;;;;6.12;68.64;102964.28;5111390;28;20043;-66
2022/03/22 02:38:51;;;;;;;29.02;17.83;;;;;;;6.05;68.84;102955.44;5109697;27;20051;-66
2022/03/22 02:41:22;;;;;;;30.30;16.75;;;;;;;5.99;68.79;102965.72;5110479;28;20051;-65
2022/03/22 02:43:50;;;;;;;28.10;16.75;;;;;;;5.95;68.95;102963.91;5109275;28;20146;-65
2022/03/22 02:46:19;;;;;;;28.65;16.33;;;;;;;5.89;69.06;102962.91;5110488;27;20089;-65
2022/03/22 02:48:47;;;;;;;29.10;17.30;;;;;;;5.88;69.37;102968.09;5111335;28;20040;-65
2022/03/22 02:51:14;;;;;;;27.52;17.05;;;;;;;5.86;69.21;102969.81;5110766;27;20032;-65
2022/03/22 02:53:42;;;;;;;29.67;17.35;;;;;;;5.83;69.28;102970.63;5111913;27;20066;-65
2022/03/22 02:56:10;;;;;;;25.10;16.10;;;;;;;5.81;69.25;102974.03;5111967;27;20032;-65
2022/03/22 02:58:38;;;;;;;27.38;16.75;;;;;;;5.73;69.29;102981.72;5109969;27;20066;-65
2022/03/22 03:01:05;;;;;;;27.55;17.42;;;;;;;5.66;69.12;102975.44;5110551;27;20047;-65
2022/03/22 03:03:33;;;;;;;29.00;17.08;;;;;;;5.61;69.37;102977.03;5110488;27;20043;-64
2022/03/22 03:06:01;;;;;;;28.98;17.42;;;;;;;5.56;69.49;102982.16;5110050;28;20040;-65
2022/03/22 03:08:29;;;;;;;30.70;17.70;;;;;;;5.52;69.67;102982.06;5110496;28;20102;-64
2022/03/22 03:10:56;;;;;;;26.52;17.05;;;;;;;5.51;69.90;102983.81;5109140;28;20080;-64
2022/03/22 03:13:23;;;;;;;32.08;18.50;;;;;;;5.49;69.73;102985.50;5105555;28;20123;-64
2022/03/22 03:15:53;;;;;;;31.05;16.95;;;;;;;5.48;69.81;102982.84;5111623;27;20481;-64
2022/03/22 03:18:21;;;;;;;27.67;17.02;;;;;;;5.47;70.07;102981.94;5109896;28;20040;-65
2022/03/22 03:20:48;;;;;;;30.23;17.15;;;;;;;5.43;69.90;102986.22;5111065;28;20044;-64
2022/03/22 03:23:15;;;;;;;29.73;17.45;;;;;;;5.41;70.04;102985.28;5110191;28;20043;-64
2022/03/22 03:25:43;;;;;;;28.55;17.02;;;;;;;5.38;70.03;102981.72;5111533;28;20044;-65
2022/03/22 03:28:10;;;;;;;28.88;17.35;;;;;;;5.38;70.14;102979.09;5109532;28;20040;-65
2022/03/22 03:30:37;;;;;;;30.02;17.73;;;;;;;5.37;70.11;102980.84;5110515;28;20063;-65
2022/03/22 03:33:04;;;;;;;28.83;16.98;;;;;;;5.35;70.14;102979.00;5109650;27;20040;-65
2022/03/22 03:35:31;;;;;;;26.88;16.05;;;;;;;5.34;70.19;102978.13;5113757;27;20064;-65
2022/03/22 03:37:58;;;;;;;29.08;17.90;;;;;;;5.30;70.17;102986.72;5113205;27;20043;-65
2022/03/22 03:41:53;;;;;;;29.33;17.23;;;;;;;5.25;70.29;102980.50;5112588;28;20094;-65
2022/03/22 03:43:13;;;;;;;26.73;16.88;;;;;;;5.19;70.21;102982.97;5113541;27;20043;-66
2022/03/22 03:48:25;;;;;;;27.67;16.48;;;;;;;5.08;70.33;102991.44;5112973;28;20093;-66
2022/03/22 03:50:52;;;;;;;29.52;18.00;;;;;;;5.04;70.35;102986.03;5113945;27;20071;-66
2022/03/22 03:53:19;;;;;;;29.17;17.45;;;;;;;5.01;70.37;102993.81;5112830;28;20032;-66
2022/03/22 03:55:46;;;;;;;28.33;17.30;;;;;;;4.97;70.57;102992.84;5114479;28;20047;-66
2022/03/22 03:58:13;;;;;;;32.47;18.00;;;;;;;4.94;70.56;102998.88;5112634;28;20036;-66
2022/03/22 04:00:40;;;;;;;33.20;18.52;;;;;;;4.92;70.60;103003.19;5112479;28;20048;-65
2022/03/22 04:03:11;;;;;;;30.60;17.60;;;;;;;4.93;70.76;103009.28;5112809;27;20781;-65
2022/03/22 04:05:38;;;;;;;26.77;16.95;;;;;;;4.92;70.69;102999.66;5113194;27;20042;-66
2022/03/22 04:08:09;;;;;;;33.10;17.85;;;;;;;4.88;70.94;103003.94;5113431;27;20047;-65
2022/03/22 04:10:36;;;;;;;25.90;16.90;;;;;;;4.82;70.69;103011.59;5113392;28;20510;-66
2022/03/22 04:13:04;;;;;;;27.23;17.05;;;;;;;4.75;70.59;103012.25;5113196;27;20036;-67
2022/03/22 04:15:31;;;;;;;28.38;18.05;;;;;;;4.68;70.74;103020.78;5112014;28;20040;-65
2022/03/22 04:17:59;;;;;;;31.23;17.63;;;;;;;4.61;70.86;103015.38;5112083;27;20040;-64
2022/03/22 04:20:26;;;;;;;28.90;17.40;;;;;;;4.57;70.90;103018.72;5114042;28;20506;-65
2022/03/22 04:22:55;;;;;;;31.25;17.95;;;;;;;4.51;71.11;103016.81;5112050;27;20043;-65
2022/03/22 04:25:22;;;;;;;29.20;17.63;;;;;;;4.47;71.07;103017.59;5113618;27;20047;-65
2022/03/22 04:33:21;;;;;;;31.50;17.77;;;;;;;4.39;70.92;103020.78;5113465;27;20420;-65
2022/03/22 04:35:48;;;;;;;31.65;17.88;;;;;;;4.39;71.54;103031.25;5113161;27;20987;-65
2022/03/22 04:38:17;;;;;;;27.35;17.23;;;;;;;4.41;71.19;103029.56;5111844;27;20036;-66
2022/03/22 04:40:45;;;;;;;30.08;17.35;;;;;;;4.39;71.41;103029.50;5114052;27;20040;-65
2022/03/22 04:43:16;;;;;;;28.27;17.70;;;;;;;4.41;71.51;103024.34;5112979;28;20044;-66
2022/03/22 04:45:43;;;;;;;30.60;17.85;;;;;;;4.43;71.43;103027.84;5112019;28;20067;-65
2022/03/22 04:48:11;;;;;;;32.80;17.67;;;;;;;4.43;71.52;103022.63;5110353;28;20086;-67
2022/03/22 04:50:38;;;;;;;32.63;18.05;;;;;;;4.45;71.44;103029.69;5112843;28;20036;-67
2022/03/22 04:58:36;;;;;;;27.45;17.52;;;;;;;4.49;71.18;103033.28;5112275;27;20068;-66
2022/03/22 05:01:04;;;;;;;28.98;17.67;;;;;;;4.49;71.11;103026.31;5112973;27;20044;-65
2022/03/22 05:03:31;;;;;;;32.78;17.42;;;;;;;4.49;71.21;103025.44;5112317;27;20032;-65
2022/03/22 05:08:45;;;;;;;28.48;16.25;;;;;;;4.44;71.01;103033.16;5111132;27;20119;-65
2022/03/22 05:11:12;;;;;;;28.38;17.10;;;;;;;4.39;71.01;103032.09;5111780;27;20439;-65
2022/03/22 05:13:39;;;;;;;28.20;17.63;;;;;;;4.32;71.36;103031.03;5110505;27;20044;-65
2022/03/22 05:16:06;;;;;;;29.90;16.13;;;;;;;4.27;71.45;103039.59;5112832;27;20043;-64
2022/03/22 05:18:36;;;;;;;30.25;18.88;;;;;;;4.22;71.45;103043.78;5111283;27;20510;-64
2022/03/22 05:21:07;;;;;;;32.60;17.70;;;;;;;4.17;71.30;103038.41;5099927;27;20059;-65
2022/03/22 05:23:36;;;;;;;28.58;17.98;;;;;;;4.13;71.40;103041.75;5108145;28;20437;-65
2022/03/22 05:26:04;;;;;;;30.05;17.67;;;;;;;4.10;71.47;103044.28;5112487;28;21900;-64
2022/03/22 05:28:32;;;;;;;31.52;18.08;;;;;;;4.07;71.40;103050.25;5112363;27;20129;-65
2022/03/22 05:30:59;;;;;;;31.25;18.33;;;;;;;4.04;71.33;103055.41;5112752;27;20036;-65
2022/03/22 05:33:26;;;;;;;31.17;17.83;;;;;;;4.01;71.49;103052.69;5112421;27;20514;-65
2022/03/22 05:35:53;;;;;;;30.60;17.27;;;;;;;4.00;71.59;103056.13;5120125;27;20040;-65
2022/03/22 05:38:25;;;;;;;38.05;18.60;;;;;;;3.99;71.59;103055.25;5110822;27;20044;-65
2022/03/22 05:40:53;;;;;;;33.83;17.83;;;;;;;4.00;71.53;103058.75;5110924;27;20460;-67
2022/03/22 05:43:21;;;;;;;29.30;17.45;;;;;;;4.00;71.52;103058.75;5108282;28;20032;-68
2022/03/22 05:45:48;;;;;;;32.75;17.55;;;;;;;4.01;71.69;103063.13;5110881;27;20043;-65
2022/03/22 05:48:19;;;;;;;37.15;18.65;;;;;;;4.10;72.02;103063.41;5107503;28;20055;-66
2022/03/22 05:50:46;;;;;;;30.42;18.00;;;;;;;4.15;71.75;103058.34;5109947;27;20052;-65
2022/03/22 05:53:14;;;;;;;32.38;18.23;;;;;;;4.17;71.38;103054.06;5108901;28;20489;-65
2022/03/22 05:55:42;;;;;;;29.63;17.70;;;;;;;4.25;71.84;103056.94;5108152;28;20044;-66
2022/03/22 05:58:10;;;;;;;31.50;17.60;;;;;;;4.31;71.51;103058.00;5123532;27;20492;-66
2022/03/22 06:00:37;;;;;;;42.13;19.35;;;;;;;4.33;71.56;103052.81;5110344;28;22359;-66
2022/03/22 06:03:05;;;;;;;31.80;18.88;;;;;;;4.34;71.14;103054.59;5109713;27;20106;-66
2022/03/22 06:05:32;;;;;;;33.17;18.70;;;;;;;4.38;71.03;103061.69;5110407;28;20047;-66
2022/03/22 06:08:00;;;;;;;33.13;17.80;;;;;;;4.43;71.02;103060.09;5112390;27;20040;-66
2022/03/22 06:10:28;;;;;;;36.50;18.27;;;;;;;4.47;70.96;103064.59;5112339;27;20044;-66
2022/03/22 06:13:03;;;;;;;32.58;19.17;;;;;;;4.54;70.82;103065.66;5113167;27;20044;-65
2022/03/22 06:15:32;;;;;;;36.97;18.40;;;;;;;4.61;70.66;103072.84;5113328;27;20105;-66
2022/03/22 06:18:05;;;;;;;32.33;17.52;;;;;;;4.71;70.77;103065.28;5112235;27;20046;-66
2022/03/22 06:20:36;;;;;;;40.75;19.45;;;;;;;4.80;70.42;103069.03;5104091;28;20036;-66
2022/03/22 06:23:06;;;;;;;26.92;16.15;;;;;;;4.85;70.34;103074.41;5110956;27;20040;-65
2022/03/22 06:25:35;;;;;;;29.88;18.17;;;;;;;4.95;70.19;103072.97;5109597;27;20052;-66
2022/03/22 06:28:04;;;;;;;30.25;17.80;;;;;;;5.06;70.02;103083.72;5110851;27;20036;-66
2022/03/22 06:30:33;;;;;;;31.33;18.20;;;;;;;5.16;69.81;103077.03;5113147;27;20040;-66
2022/03/22 06:33:12;;;;;;;30.67;17.60;;;;;;;5.32;69.61;103088.81;5108985;28;20517;-66
2022/03/22 06:35:43;;;;;;;33.05;17.63;;;;;;;5.45;69.30;103077.81;5107706;27;20050;-66
2022/03/22 06:38:11;;;;;;;32.40;17.65;;;;;;;5.62;69.07;103085.25;5109025;28;20484;-65
2022/03/22 06:40:39;;;;;;;38.83;17.13;;;;;;;5.77;68.80;103079.53;5111913;27;20032;-66
2022/03/22 06:43:14;;;;;;;42.22;17.88;;;;;;;5.96;68.33;103084.38;5112099;27;20067;-66
2022/03/22 06:45:44;;;;;;;35.83;17.17;;;;;;;6.14;67.96;103083.06;5110366;27;20048;-65
2022/03/22 06:48:13;;;;;;;35.35;18.00;;;;;;;6.30;67.43;103085.22;5109348;27;20083;-66
2022/03/22 06:50:42;;;;;;;31.45;16.35;;;;;;;6.47;67.28;103080.34;5110006;27;20037;-65
2022/03/22 06:53:11;;;;;;;34.35;17.25;;;;;;;6.65;66.72;103084.25;5111652;27;20055;-65
2022/03/22 06:55:38;;;;;;;33.65;17.75;;;;;;;6.81;66.53;103086.34;5112053;27;20047;-66
2022/03/22 06:58:06;;;;;;;39.28;16.95;;;;;;;6.98;65.79;103083.19;5113041;27;20594;-66
2022/03/22 07:00:35;;;;;;;32.97;17.38;;;;;;;7.14;65.52;103090.53;5111167;27;20555;-66
2022/03/22 07:03:04;;;;;;;28.70;16.70;;;;;;;7.31;64.88;103092.59;5117260;27;20044;-67
2022/03/22 07:05:32;;;;;;;28.20;16.95;;;;;;;7.45;64.62;103093.75;5110398;27;20048;-66
2022/03/22 07:08:00;;;;;;;35.72;16.42;;;;;;;7.60;64.11;103085.28;5103515;27;20049;-66
2022/03/22 07:10:27;;;;;;;26.30;16.10;;;;;;;7.75;63.67;103086.38;5112328;27;20044;-66
2022/03/22 07:13:04;;;;;;;30.38;16.30;;;;;;;7.90;63.56;103089.28;5111362;27;20044;-67
2022/03/22 07:15:37;;;;;;;26.80;15.02;;;;;;;8.04;62.84;103094.75;5111038;27;20036;-66
2022/03/22 07:18:13;;;;;;;33.17;16.30;;;;;;;8.18;62.51;103094.97;5112149;27;20442;-66
2022/03/22 07:20:40;;;;;;;29.90;16.92;;;;;;;8.31;62.05;103093.41;5111365;27;20040;-66
2022/03/22 07:23:07;;;;;;;29.75;16.05;;;;;;;8.44;61.84;103094.50;5108222;27;20102;-66
2022/03/22 07:25:34;;;;;;;24.25;14.77;;;;;;;8.59;61.25;103098.25;5111535;27;20796;-66
2022/03/22 07:28:03;;;;;;;34.35;15.80;;;;;;;8.73;60.83;103093.16;5111509;27;20102;-67
2022/03/22 07:30:30;;;;;;;25.48;15.43;;;;;;;8.89;59.41;103094.25;5111016;27;20115;-66
2022/03/22 07:32:57;;;;;;;34.50;15.48;;;;;;;9.04;59.32;103101.44;5111863;27;20055;-66
2022/03/22 07:35:24;;;;;;;54.40;17.75;;;;;;;9.20;58.49;103102.53;5110690;27;20043;-66
2022/03/22 07:37:56;;;;;;;30.02;14.98;;;;;;;9.37;58.51;103105.34;5103547;27;20045;-67
2022/03/22 07:40:23;;;;;;;34.50;16.48;;;;;;;9.52;58.25;103102.00;5111585;28;20501;-66
2022/03/22 07:42:50;;;;;;;25.38;15.50;;;;;;;9.69;57.73;103102.16;5111658;27;20059;-66
2022/03/22 07:45:20;;;;;;;27.42;15.63;;;;;;;9.85;57.65;103104.06;5111468;27;20039;-67
2022/03/22 07:47:48;;;;;;;35.80;15.85;;;;;;;10.01;57.15;103094.53;5111175;28;20043;-68
2022/03/22 07:53:05;;;;;;;24.95;14.50;;;;;;;10.34;55.66;103094.75;5107393;28;20040;-68
2022/03/22 07:55:39;;;;;;;28.38;15.68;;;;;;;10.46;55.75;103089.59;5109187;27;20102;-68
2022/03/22 07:58:08;;;;;;;48.83;17.02;;;;;;;10.62;55.03;103097.63;5107701;28;20040;-67
2022/03/22 08:00:38;;;;;;;31.13;15.95;;;;;;;10.75;55.04;103101.22;5111026;28;20090;-67
2022/03/22 08:03:12;;;;;;;27.67;14.52;;;;;;;10.90;54.19;103098.63;5109651;28;20064;-68
2022/03/22 08:05:45;;;;;;;36.87;16.63;;;;;;;11.09;53.52;103104.00;5109188;27;20041;-68
2022/03/22 08:08:12;;;;;;;29.42;15.25;;;;;;;11.25;53.18;103103.16;5105400;27;20293;-68
2022/03/22 08:10:58;;;;;;;25.33;14.70;;;;;;;11.45;53.39;103095.28;5103100;28;20522;-68
2022/03/22 08:13:26;;;;;;;31.17;14.73;;;;;;;11.65;52.99;103095.31;5108759;27;20502;-67
2022/03/22 08:15:53;;;;;;;29.90;16.10;;;;;;;11.86;52.13;103095.31;5110077;27;20040;-67
2022/03/22 08:18:20;;;;;;;25.58;14.73;;;;;;;12.06;52.39;103100.66;5110511;27;20045;-69
2022/03/22 08:20:47;;;;;;;28.02;14.73;;;;;;;12.26;51.62;103109.44;5114439;27;20036;-68
2022/03/22 08:23:15;;;;;;;29.90;14.32;;;;;;;12.45;50.88;103111.19;5114279;28;20059;-69
2022/03/22 08:25:48;;;;;;;31.20;15.52;;;;;;;12.63;50.05;103112.91;5119949;27;20047;-66
2022/03/22 08:28:17;;;;;;;20.77;14.13;;;;;;;12.78;49.16;103107.56;5114210;28;20134;-67
2022/03/22 08:30:45;;;;;;;29.42;14.20;;;;;;;12.94;48.98;103102.19;5114270;27;20504;-67
2022/03/22 08:33:12;;;;;;;26.38;14.30;;;;;;;13.07;48.71;103105.69;5114368;27;20036;-67
2022/03/22 08:35:46;;;;;;;25.05;14.65;;;;;;;13.20;47.88;103104.72;5113828;27;20363;-66
2022/03/22 08:38:16;;;;;;;28.92;14.20;;;;;;;13.35;47.00;103101.13;5112787;27;20120;-67
2022/03/22 08:40:46;;;;;;;29.15;13.63;;;;;;;13.48;46.58;103101.97;5112390;28;20079;-67
2022/03/22 08:43:13;;;;;;;22.02;13.77;;;;;;;13.61;45.84;103100.97;5114602;27;20040;-67
2022/03/22 08:45:41;;;;;;;26.58;14.45;;;;;;;13.77;46.36;103100.88;5114134;27;20048;-66
2022/03/22 08:48:10;;;;;;;30.55;14.23;;;;;;;13.90;45.30;103106.97;5112498;27;20044;-67
2022/03/22 08:50:45;;;;;;;29.98;14.77;;;;;;;14.03;45.28;103105.97;5111849;28;20052;-67
2022/03/22 08:53:14;;;;;;;23.80;13.43;;;;;;;14.16;45.80;103096.13;5108996;28;20038;-67
2022/03/22 08:55:48;;;;;;;30.30;14.55;;;;;;;14.28;44.52;103100.41;5113298;27;20044;-67
2022/03/22 08:58:16;;;;;;;30.65;14.13;;;;;;;14.41;43.66;103095.84;5114297;27;20454;-67
2022/03/22 09:00:45;;;;;;;25.15;13.90;;;;;;;14.53;44.38;103093.06;5110632;28;20040;-67
2022/03/22 09:03:14;;;;;;;34.50;14.93;;;;;;;14.68;44.75;103092.06;5105733;28;20048;-68
2022/03/22 09:08:28;;;;;;;27.70;13.48;;;;;;;14.96;44.43;103090.84;5108241;28;20044;-68
2022/03/22 09:10:55;;;;;;;31.90;14.75;;;;;;;15.07;43.96;103091.59;5114274;27;20062;-67
2022/03/22 09:13:22;;;;;;;27.10;14.40;;;;;;;15.19;44.32;103091.41;5115501;27;20040;-68
2022/03/22 09:15:51;;;;;;;34.38;14.73;;;;;;;15.30;43.92;103088.59;5116421;27;20039;-68
2022/03/22 09:18:22;;;;;;;42.92;15.65;;;;;;;15.42;41.71;103084.88;5115093;28;20048;-68
2022/03/22 09:20:50;;;;;;;32.72;14.13;;;;;;;15.53;41.14;103082.94;5114277;27;20044;-68
2022/03/22 09:23:19;;;;;;;23.88;13.90;;;;;;;15.65;40.45;103084.53;5113191;27;20051;-68
2022/03/22 09:25:47;;;;;;;33.33;15.10;;;;;;;15.76;41.13;103078.16;5113840;27;20182;-69
2022/03/22 09:28:15;;;;;;;52.78;16.52;;;;;;;15.89;41.71;103073.53;5104670;27;20047;-67
2022/03/22 09:30:42;;;;;;;38.47;15.73;;;;;;;15.99;41.58;103083.13;5111222;27;20048;-68
2022/03/22 09:33:11;;;;;;;40.13;15.52;;;;;;;16.11;40.76;103082.91;5111777;28;20094;-68
2022/03/22 09:35:39;;;;;;;33.67;15.23;;;;;;;16.16;40.31;103077.50;5114015;27;20143;-68
2022/03/22 09:38:06;;;;;;;37.53;16.10;;;;;;;16.21;40.47;103074.75;5113510;27;20040;-67
2022/03/22 09:40:33;;;;;;;37.33;15.98;;;;;;;16.25;40.87;103077.31;5114017;27;20040;-67
2022/03/22 09:43:01;;;;;;;30.13;17.60;;;;;;;16.30;40.07;103075.44;5114129;27;20044;-68
2022/03/22 09:45:33;;;;;;;37.90;16.60;;;;;;;16.25;40.47;103073.75;5102286;28;20089;-67
2022/03/22 09:48:01;;;;;;;38.50;15.60;;;;;;;16.33;40.53;103074.50;5113631;28;20064;-68
2022/03/22 09:53:16;;;;;;;29.58;15.57;;;;;;;16.52;39.32;103079.50;5111096;28;20164;-68
2022/03/22 09:55:45;;;;;;;32.80;16.00;;;;;;;16.61;40.77;103080.16;5113535;27;20119;-68
2022/03/22 09:58:14;;;;;;;40.10;16.15;;;;;;;16.71;39.25;103078.19;5113490;27;20074;-68
2022/03/22 10:00:41;;;;;;;39.00;16.45;;;;;;;16.76;39.72;103073.63;5114843;27;20036;-68
2022/03/22 10:03:20;;;;;;;36.35;15.95;;;;;;;16.85;38.96;103066.34;5113284;28;20129;-68
2022/03/22 10:06:03;;;;;;;24.63;14.23;;;;;;;16.95;39.59;103067.94;5119400;27;20810;-68
2022/03/22 10:08:30;;;;;;;26.60;14.70;;;;;;;17.06;38.93;103055.25;5115385;27;20079;-68
2022/03/22 10:11:04;;;;;;;22.23;14.30;;;;;;;17.21;38.79;103054.03;5114127;27;20102;-70
2022/03/22 10:13:33;;;;;;;29.55;14.18;;;;;;;17.34;38.33;103051.97;5113014;28;20487;-68
2022/03/22 10:16:05;;;;;;;26.45;15.45;;;;;;;17.49;38.59;103053.41;5111679;28;20044;-68
2022/03/22 10:18:35;;;;;;;22.08;13.55;;;;;;;17.64;37.12;103049.47;5109249;28;20102;-68
2022/03/22 10:21:05;;;;;;;24.67;13.43;;;;;;;17.70;35.75;103051.97;5113468;27;20048;-68
2022/03/22 10:23:46;;;;;;;29.20;15.23;;;;;;;17.78;36.53;103053.56;5112202;28;20123;-68
2022/03/22 10:26:13;;;;;;;25.65;14.55;;;;;;;17.87;35.50;103045.31;5112256;27;20043;-68
2022/03/22 10:28:55;;;;;;;31.35;14.63;;;;;;;18.02;36.40;103046.72;5112450;27;20043;-68
2022/03/22 10:31:40;;;;;;;26.42;14.68;;;;;;;18.16;35.28;103036.56;5112258;27;20490;-68
2022/03/22 10:34:10;;;;;;;29.98;14.70;;;;;;;18.31;35.94;103042.41;5105044;28;20048;-68
2022/03/22 10:36:41;;;;;;;27.08;14.18;;;;;;;18.44;35.80;103049.13;5110884;27;20167;-69
2022/03/22 10:39:12;;;;;;;30.02;15.00;;;;;;;18.60;35.12;103038.88;5113217;27;20139;-67
2022/03/22 10:41:44;;;;;;;;;;;;;;;18.71;35.63;103037.69;5112291;27;20036;-69
2022/03/22 10:44:18;;;;;;;24.08;13.85;;;;;;;18.82;35.47;103038.25;5112438;27;20518;-69
2022/03/22 10:46:47;;;;;;;25.80;13.85;;;;;;;18.93;35.59;103043.28;5112789;27;20047;-68
2022/03/22 10:49:18;;;;;;;24.13;14.90;;;;;;;18.98;34.05;103040.47;5112781;27;20115;-68
2022/03/22 10:52:09;;;;;;;24.92;13.90;;;;;;;18.96;32.42;103042.34;5110993;27;20143;-68
2022/03/22 10:54:36;;;;;;;33.47;14.63;;;;;;;19.01;32.79;103035.03;5111666;27;20105;-69
2022/03/22 10:57:06;;;;;;;25.25;14.77;;;;;;;19.12;33.33;103038.25;5113442;27;20525;-69
2022/03/22 10:59:34;;;;;;;26.50;15.10;;;;;;;19.27;33.69;103036.88;5113841;27;20047;-70
2022/03/22 11:02:04;;;;;;;28.00;13.90;;;;;;;19.38;33.70;103036.53;5113327;27;20075;-68
2022/03/22 11:04:32;;;;;;;28.52;13.95;;;;;;;19.47;33.44;103033.56;5112630;27;20047;-68
2022/03/22 11:07:04;;;;;;;27.20;14.45;;;;;;;19.58;32.77;103033.19;5113156;28;20085;-68
2022/03/22 11:09:32;;;;;;;26.50;14.70;;;;;;;19.67;32.66;103032.00;5109064;28;20487;-68
2022/03/22 11:12:01;;;;;;;25.10;14.05;;;;;;;19.70;30.45;103027.44;5112853;27;20381;-68
2022/03/22 11:14:29;;;;;;;25.80;15.07;;;;;;;19.64;32.20;103029.44;5112867;27;20676;-67
2022/03/22 11:16:57;;;;;;;25.35;14.45;;;;;;;19.69;31.88;103030.13;5111913;27;20413;-68
2022/03/22 11:19:25;;;;;;;23.88;13.00;;;;;;;19.78;30.81;103032.53;5112026;27;20127;-69
2022/03/22 11:21:52;;;;;;;25.42;14.50;;;;;;;19.91;32.36;103029.41;5112207;27;20046;-69
2022/03/22 11:24:25;;;;;;;27.52;14.65;;;;;;;20.04;32.73;103025.38;5105068;27;20050;-69
2022/03/22 11:26:56;;;;;;;27.80;14.43;;;;;;;20.10;32.45;103019.81;5112338;27;20464;-69
2022/03/22 11:29:25;;;;;;;26.88;14.07;;;;;;;20.19;31.07;103017.75;5112010;27;20449;-68
2022/03/22 11:34:43;;;;;;;26.55;14.10;;;;;;;20.03;30.48;103018.28;5110797;28;20041;-68
2022/03/22 11:37:10;;;;;;;25.50;14.00;;;;;;;19.99;30.25;103011.31;5111832;27;20037;-68
2022/03/22 11:42:25;;;;;;;25.92;14.05;;;;;;;20.10;31.58;103008.22;5112084;27;20087;-69
2022/03/22 11:44:57;;;;;;;27.40;14.88;;;;;;;20.26;31.95;103005.88;5112243;27;20036;-68
2022/03/22 11:47:27;;;;;;;34.72;16.42;;;;;;;20.38;32.44;103004.53;5103620;28;20040;-69
2022/03/22 11:49:55;;;;;;;25.17;14.77;;;;;;;20.36;29.79;103001.91;5111750;27;20520;-68
2022/03/22 11:52:39;;;;;;;24.92;13.90;;;;;;;20.30;30.03;103000.34;5111106;27;20044;-68
2022/03/22 11:55:23;;;;;;;26.77;15.07;;;;;;;20.32;29.28;102995.81;5113812;27;20417;-69
2022/03/22 11:58:05;;;;;;;36.28;15.23;;;;;;;20.42;30.66;102995.44;5115381;27;20047;-68